Massillon, Ohio
Current Conditions -  °F | °C
As of 9:51 PM on Thursday 27 Nov 2014 (Local Time) from KCAK Reporting Station
Light Snow Light Snow  
Wind Chill: 21°   Ceiling: 700
Heat Index: 30°   Visibility: 4mi
Dew Point: 26°   Wind: 12mph
Humidity: 85%   Direction: 280°W
Pressure: 30.2"   Gusts: NA
Location:  40.79°N, 81.52°W
Report Text: KCAK 280251Z 28010KT 4SM -SN BR BKN007 OVC035 M01/M03 A3020 RMK AO2 SLP240 P0002 T10111033 51004
Loading
Personal Weather Stations






























Interactive Weather Map New forecast layout! Learn more

10-Day Weather Forecast

Advertisements
Track Severe Weather on mobile